KTTD/TTD METAR and TAF weather

Enter ICAO airport designator
Station Type Date Time Source
KTTD METAR 2018/12/17 15:53 UTC NOAA

KTTD 171553Z 05003KT 10SM FEW039 OVC050 07/06 A3001 RMK AO2 SLP162 T00670056


Station Type Date Time Source
KTTD Decoded METAR 2018/12/17 15:53 UTC NOAA

PORTLAND-TROUTDALE AIRPORT, OR, United States (KTTD) 45-33N 122-25W 14M
Dec 17, 2018 - 10:53 AM EST / 2018.12.17 1553 UTC
Wind: from the NE (050 degrees) at 3 MPH (3 KT):0
Visibility: 10 mile(s):0
Sky conditions: overcast
Temperature: 44.1 F (6.7 C)
Dew Point: 42.1 F (5.6 C)
Relative Humidity: 92%
Pressure (altimeter): 30.01 in. Hg (1016 hPa)
ob: KTTD 171553Z 05003KT 10SM FEW039 OVC050 07/06 A3001 RMK AO2 SLP162 T00670056
cycle: 16

Station Type Date Time Source
KTTD TAF 2018/12/17 12:39 UTC NOAA

TAF KTTD 171137Z 1712/1812 09007KT P6SM VCSH SCT040 BKN060
FM171800 09012KT P6SM SCT050 BKN100
FM172100 09012KT P6SM BKN050 OVC100
FM180000 10015G23KT P6SM -RA BKN040 OVC070 WS020/20035KT
FM180800 10014KT 4SM RA BR BKN025 OVC040 WS020/20035KT


Example: see airport list